createdAt,value
2023-01-29T00:00:37.231Z,1024.74
2023-01-29T00:01:37.171Z,1024.79
2023-01-29T00:02:37.233Z,1024.84
2023-01-29T00:03:37.239Z,1024.85
2023-01-29T00:04:37.150Z,1024.86
2023-01-29T00:05:37.139Z,1024.93
2023-01-29T00:06:37.061Z,1024.93
2023-01-29T00:07:37.166Z,1024.86
2023-01-29T00:08:37.296Z,1024.86
2023-01-29T00:09:37.103Z,1024.83
2023-01-29T00:10:36.993Z,1024.82
2023-01-29T00:11:37.083Z,1024.79
2023-01-29T00:12:37.210Z,1024.76
2023-01-29T00:13:37.129Z,1024.72
2023-01-29T00:14:37.026Z,1024.72
2023-01-29T00:15:37.016Z,1024.68
2023-01-29T00:16:37.035Z,1024.69
2023-01-29T00:17:36.951Z,1024.72
2023-01-29T00:18:37.046Z,1024.68
2023-01-29T00:19:36.974Z,1024.65
2023-01-29T00:20:36.962Z,1024.61
2023-01-29T00:21:36.867Z,1024.56
2023-01-29T00:22:36.875Z,1024.62
2023-01-29T00:23:36.892Z,1024.59
2023-01-29T00:24:36.885Z,1024.59
2023-01-29T00:25:36.869Z,1024.49
2023-01-29T00:26:37.004Z,1024.50
2023-01-29T00:27:36.896Z,1024.49
2023-01-29T00:28:36.827Z,1024.45
2023-01-29T00:29:36.823Z,1024.44
2023-01-29T00:30:36.716Z,1024.38
2023-01-29T00:31:38.012Z,1024.36
2023-01-29T00:32:36.824Z,1024.43
2023-01-29T00:33:37.045Z,1024.41
2023-01-29T00:34:36.771Z,1024.36
2023-01-29T00:35:37.798Z,1024.42
2023-01-29T00:36:36.655Z,1024.34
2023-01-29T00:37:36.678Z,1024.36
2023-01-29T00:38:36.684Z,1024.33
2023-01-29T00:39:47.353Z,1024.33
2023-01-29T00:40:37.922Z,1024.31
2023-01-29T00:41:37.527Z,1024.26
2023-01-29T00:42:36.902Z,1024.22
2023-01-29T00:43:37.665Z,1024.27
2023-01-29T00:44:36.631Z,1024.21
2023-01-29T00:45:36.538Z,1024.18
2023-01-29T00:46:36.826Z,1024.22
2023-01-29T00:47:36.627Z,1024.22
2023-01-29T00:48:36.537Z,1024.24
2023-01-29T00:49:36.459Z,1024.22
2023-01-29T00:50:36.561Z,1024.21
2023-01-29T00:51:36.570Z,1024.19
2023-01-29T00:52:36.471Z,1024.21
2023-01-29T00:53:36.785Z,1024.21
2023-01-29T00:54:36.412Z,1024.19
2023-01-29T00:55:36.685Z,1024.24
2023-01-29T00:56:36.513Z,1024.31
2023-01-29T00:57:36.409Z,1024.26
2023-01-29T00:58:36.348Z,1024.25
2023-01-29T00:59:36.336Z,1024.24
2023-01-29T01:00:37.603Z,1024.21
2023-01-29T01:01:36.424Z,1024.21
2023-01-29T01:02:37.970Z,1024.20
2023-01-29T01:03:36.338Z,1024.20
2023-01-29T01:04:36.355Z,1024.15
2023-01-29T01:05:36.557Z,1024.17
2023-01-29T01:06:36.496Z,1024.19
2023-01-29T01:07:36.360Z,1024.23
2023-01-29T01:08:36.284Z,1024.24
2023-01-29T01:09:36.271Z,1024.21
2023-01-29T01:10:36.188Z,1024.21
2023-01-29T01:11:36.105Z,1024.21
2023-01-29T01:12:36.225Z,1024.18
2023-01-29T01:13:36.202Z,1024.20
2023-01-29T01:14:36.216Z,1024.22
2023-01-29T01:15:36.225Z,1024.17
2023-01-29T01:16:36.162Z,1024.19
2023-01-29T01:17:36.133Z,1024.23
2023-01-29T01:18:36.045Z,1024.27
2023-01-29T01:19:36.058Z,1024.26
2023-01-29T01:20:38.297Z,1024.31
2023-01-29T01:21:36.265Z,1024.32
2023-01-29T01:22:36.095Z,1024.30
2023-01-29T01:23:36.081Z,1024.33
2023-01-29T01:24:36.127Z,1024.25
2023-01-29T01:25:36.018Z,1024.26
2023-01-29T01:26:36.001Z,1024.26
2023-01-29T01:27:36.226Z,1024.24
2023-01-29T01:28:36.009Z,1024.15
2023-01-29T01:29:35.941Z,1024.14
2023-01-29T01:30:36.038Z,1024.11
2023-01-29T01:31:36.093Z,1024.10
2023-01-29T01:32:35.930Z,1024.08
2023-01-29T01:33:36.160Z,1024.08
2023-01-29T01:34:35.933Z,1024.08
2023-01-29T01:35:35.858Z,1024.01
2023-01-29T01:36:35.957Z,1024.02
2023-01-29T01:37:36.373Z,1024.06
2023-01-29T01:38:35.777Z,1024.04
2023-01-29T01:39:35.893Z,1024.11
2023-01-29T01:40:35.819Z,1024.08
2023-01-29T01:41:35.903Z,1024.08
2023-01-29T01:42:35.814Z,1024.12
2023-01-29T01:43:35.824Z,1024.15
2023-01-29T01:44:35.799Z,1024.16
2023-01-29T01:45:36.007Z,1024.16
2023-01-29T01:46:35.748Z,1024.13
2023-01-29T01:47:35.724Z,1024.10
2023-01-29T01:48:35.744Z,1024.10
2023-01-29T01:49:35.951Z,1024.13
2023-01-29T01:50:35.886Z,1024.10
2023-01-29T01:51:35.663Z,1024.12
2023-01-29T01:52:35.673Z,1024.06
2023-01-29T01:53:35.597Z,1024.00
2023-01-29T01:54:35.779Z,1024.09
2023-01-29T01:55:35.611Z,1024.04
2023-01-29T01:56:35.595Z,1024.03
2023-01-29T01:57:35.595Z,1024.07
2023-01-29T01:58:35.642Z,1024.05
2023-01-29T01:59:35.499Z,1024.05
2023-01-29T02:00:35.627Z,1024.03
2023-01-29T02:01:35.527Z,1024.04
2023-01-29T02:02:35.623Z,1024.05
2023-01-29T02:03:35.442Z,1024.00
2023-01-29T02:04:35.471Z,1024.03
2023-01-29T02:05:35.479Z,1024.04
2023-01-29T02:06:35.471Z,1024.02
2023-01-29T02:07:35.806Z,1024.06
2023-01-29T02:08:35.798Z,1024.02
2023-01-29T02:09:35.484Z,1024.02
2023-01-29T02:10:35.521Z,1024.02
2023-01-29T02:11:35.492Z,1024.01
2023-01-29T02:12:35.412Z,1023.99
2023-01-29T02:13:35.403Z,1023.96
2023-01-29T02:14:35.342Z,1023.99
2023-01-29T02:15:35.723Z,1024.02
2023-01-29T02:16:35.452Z,1024.04
2023-01-29T02:17:35.280Z,1024.05
2023-01-29T02:18:35.334Z,1024.01
2023-01-29T02:19:35.244Z,1023.99
2023-01-29T02:20:35.260Z,1023.97
2023-01-29T02:21:35.380Z,1023.96
2023-01-29T02:22:35.273Z,1023.93
2023-01-29T02:23:35.431Z,1023.92
2023-01-29T02:24:35.458Z,1023.90
2023-01-29T02:25:35.299Z,1023.85
2023-01-29T02:26:35.706Z,1023.89
2023-01-29T02:27:35.216Z,1023.84
2023-01-29T02:28:35.112Z,1023.84
2023-01-29T02:29:35.121Z,1023.83
2023-01-29T02:30:35.218Z,1023.79
2023-01-29T02:31:35.238Z,1023.77
2023-01-29T02:32:35.135Z,1023.78
2023-01-29T02:33:35.043Z,1023.79
2023-01-29T02:34:35.079Z,1023.78
2023-01-29T02:35:35.050Z,1023.76
2023-01-29T02:36:35.089Z,1023.75
2023-01-29T02:37:35.078Z,1023.74
2023-01-29T02:38:35.079Z,1023.76
2023-01-29T02:39:35.008Z,1023.79
2023-01-29T02:40:35.002Z,1023.71
2023-01-29T02:41:35.019Z,1023.72
2023-01-29T02:42:35.020Z,1023.71
2023-01-29T02:43:35.034Z,1023.72
2023-01-29T02:44:35.033Z,1023.74
2023-01-29T02:45:34.868Z,1023.74
2023-01-29T02:46:34.838Z,1023.73
2023-01-29T02:47:34.942Z,1023.76
2023-01-29T02:48:34.846Z,1023.72
2023-01-29T02:49:34.766Z,1023.75
2023-01-29T02:50:34.962Z,1023.75
2023-01-29T02:51:34.758Z,1023.73
2023-01-29T02:52:34.976Z,1023.75
2023-01-29T02:53:34.867Z,1023.77
2023-01-29T02:54:34.913Z,1023.78
2023-01-29T02:55:34.795Z,1023.74
2023-01-29T02:56:34.799Z,1023.73
2023-01-29T02:57:34.893Z,1023.70
2023-01-29T02:58:34.815Z,1023.69
2023-01-29T02:59:34.729Z,1023.70
2023-01-29T03:00:34.736Z,1023.66
2023-01-29T03:01:34.816Z,1023.64
2023-01-29T03:02:34.804Z,1023.63
2023-01-29T03:03:34.659Z,1023.60
2023-01-29T03:04:34.746Z,1023.59
2023-01-29T03:05:35.039Z,1023.58
2023-01-29T03:06:34.668Z,1023.57
2023-01-29T03:07:34.701Z,1023.57
2023-01-29T03:08:34.679Z,1023.52
2023-01-29T03:09:34.581Z,1023.49
2023-01-29T03:10:34.685Z,1023.46
2023-01-29T03:11:34.597Z,1023.41
2023-01-29T03:12:34.516Z,1023.40
2023-01-29T03:13:34.602Z,1023.36
2023-01-29T03:14:34.607Z,1023.35
2023-01-29T03:15:34.552Z,1023.35
2023-01-29T03:16:34.830Z,1023.26
2023-01-29T03:17:34.519Z,1023.30
2023-01-29T03:18:34.446Z,1023.31
2023-01-29T03:19:34.742Z,1023.25
2023-01-29T03:20:34.377Z,1023.27
2023-01-29T03:21:34.460Z,1023.30
2023-01-29T03:22:35.279Z,1023.30
2023-01-29T03:23:34.366Z,1023.28
2023-01-29T03:24:34.792Z,1023.27
2023-01-29T03:25:34.686Z,1023.21
2023-01-29T03:26:34.410Z,1023.26
2023-01-29T03:27:34.397Z,1023.21
2023-01-29T03:28:34.392Z,1023.24
2023-01-29T03:29:34.315Z,1023.18
2023-01-29T03:30:34.523Z,1023.22
2023-01-29T03:31:34.488Z,1023.20
2023-01-29T03:32:34.342Z,1023.20
2023-01-29T03:33:34.240Z,1023.19
2023-01-29T03:34:34.250Z,1023.23
2023-01-29T03:35:34.288Z,1023.19
2023-01-29T03:36:34.255Z,1023.16
2023-01-29T03:37:34.376Z,1023.10
2023-01-29T03:38:34.288Z,1023.15
2023-01-29T03:39:34.176Z,1023.14
2023-01-29T03:40:34.182Z,1023.19
2023-01-29T03:41:34.301Z,1023.17
2023-01-29T03:42:34.195Z,1023.16
2023-01-29T03:43:34.203Z,1023.14
2023-01-29T03:44:34.143Z,1023.17
2023-01-29T03:45:34.248Z,1023.10
2023-01-29T03:46:34.214Z,1023.06
2023-01-29T03:47:34.133Z,1023.06
2023-01-29T03:48:34.023Z,1023.09
2023-01-29T03:49:34.044Z,1023.10
2023-01-29T03:50:34.149Z,1023.06
2023-01-29T03:51:33.975Z,1023.07
2023-01-29T03:52:34.384Z,1023.09
2023-01-29T03:53:34.084Z,1023.05
2023-01-29T03:54:33.984Z,1023.09
2023-01-29T03:55:33.984Z,1023.05
2023-01-29T03:56:33.998Z,1023.08
2023-01-29T03:57:33.905Z,1023.00
2023-01-29T03:58:35.322Z,1023.00
2023-01-29T03:59:34.025Z,1023.06
2023-01-29T04:00:33.822Z,1023.02
2023-01-29T04:01:33.980Z,1022.98
2023-01-29T04:02:33.951Z,1022.97
2023-01-29T04:03:33.934Z,1022.97
2023-01-29T04:04:33.860Z,1022.99
2023-01-29T04:05:33.858Z,1022.97
2023-01-29T04:06:33.787Z,1022.98
2023-01-29T04:07:33.776Z,1022.99
2023-01-29T04:08:33.987Z,1023.00
2023-01-29T04:09:33.997Z,1022.97
2023-01-29T04:10:33.776Z,1022.98
2023-01-29T04:11:33.797Z,1022.95
2023-01-29T04:12:33.806Z,1022.97
2023-01-29T04:13:33.709Z,1022.94
2023-01-29T04:14:33.737Z,1022.88
2023-01-29T04:15:33.708Z,1022.87
2023-01-29T04:16:34.600Z,1022.89
2023-01-29T04:17:33.778Z,1022.86
2023-01-29T04:18:33.748Z,1022.88
2023-01-29T04:19:33.647Z,1022.82
2023-01-29T04:20:33.773Z,1022.78
2023-01-29T04:21:33.651Z,1022.75
2023-01-29T04:22:33.766Z,1022.73
2023-01-29T04:23:33.578Z,1022.75
2023-01-29T04:24:33.671Z,1022.77
2023-01-29T04:25:33.899Z,1022.74
2023-01-29T04:26:33.679Z,1022.78
2023-01-29T04:27:33.520Z,1022.73
2023-01-29T04:28:33.505Z,1022.71
2023-01-29T04:29:33.521Z,1022.77
2023-01-29T04:30:33.746Z,1022.73
2023-01-29T04:31:33.581Z,1022.67
2023-01-29T04:32:33.512Z,1022.65
2023-01-29T04:33:33.460Z,1022.68
2023-01-29T04:34:33.534Z,1022.65
2023-01-29T04:35:33.782Z,1022.61
2023-01-29T04:36:33.465Z,1022.70
2023-01-29T04:37:33.398Z,1022.73
2023-01-29T04:38:33.368Z,1022.71
2023-01-29T04:39:33.376Z,1022.73
2023-01-29T04:40:33.470Z,1022.76
2023-01-29T04:41:33.292Z,1022.75
2023-01-29T04:42:33.480Z,1022.75
2023-01-29T04:43:33.331Z,1022.75
2023-01-29T04:44:33.302Z,1022.76
2023-01-29T04:45:33.425Z,1022.73
2023-01-29T04:46:33.440Z,1022.77
2023-01-29T04:47:33.426Z,1022.76
2023-01-29T04:48:33.240Z,1022.76
2023-01-29T04:49:33.253Z,1022.87
2023-01-29T04:50:33.171Z,1022.85
2023-01-29T04:51:33.157Z,1022.86
2023-01-29T04:52:33.177Z,1022.89
2023-01-29T04:53:33.172Z,1022.93
2023-01-29T04:54:33.215Z,1022.90
2023-01-29T04:55:33.277Z,1022.92
2023-01-29T04:56:33.116Z,1022.91
2023-01-29T04:57:33.285Z,1022.94
2023-01-29T04:58:33.223Z,1022.93
2023-01-29T04:59:33.123Z,1022.99
2023-01-29T05:00:33.133Z,1022.99
2023-01-29T05:01:33.259Z,1023.04
2023-01-29T05:02:33.067Z,1023.02
2023-01-29T05:03:33.033Z,1023.04
2023-01-29T05:04:33.046Z,1023.04
2023-01-29T05:05:33.079Z,1023.05
2023-01-29T05:06:33.062Z,1023.03
2023-01-29T05:07:32.956Z,1022.96
2023-01-29T05:08:33.264Z,1022.99
2023-01-29T05:09:33.014Z,1023.03
2023-01-29T05:10:32.971Z,1023.02
2023-01-29T05:11:33.273Z,1023.00
2023-01-29T05:12:32.907Z,1023.00
2023-01-29T05:13:32.934Z,1022.94
2023-01-29T05:14:32.929Z,1022.92
2023-01-29T05:15:33.109Z,1022.85
2023-01-29T05:16:32.819Z,1022.85
2023-01-29T05:17:33.020Z,1022.87
2023-01-29T05:18:32.851Z,1022.82
2023-01-29T05:19:32.847Z,1022.83
2023-01-29T05:20:32.854Z,1022.80
2023-01-29T05:21:32.770Z,1022.81
2023-01-29T05:22:32.757Z,1022.80
2023-01-29T05:23:32.801Z,1022.85
2023-01-29T05:24:32.835Z,1022.84
2023-01-29T05:25:32.787Z,1022.75
2023-01-29T05:26:32.893Z,1022.73
2023-01-29T05:27:32.776Z,1022.72
2023-01-29T05:28:32.733Z,1022.72
2023-01-29T05:29:32.797Z,1022.73
2023-01-29T05:30:32.734Z,1022.75
2023-01-29T05:31:32.720Z,1022.78
2023-01-29T05:32:32.751Z,1022.68
2023-01-29T05:33:32.734Z,1022.72
2023-01-29T05:34:32.555Z,1022.71
2023-01-29T05:35:32.753Z,1022.75
2023-01-29T05:36:32.566Z,1022.80
2023-01-29T05:37:32.566Z,1022.81
2023-01-29T05:38:32.672Z,1022.73
2023-01-29T05:39:32.590Z,1022.76
2023-01-29T05:40:32.574Z,1022.85
2023-01-29T05:41:32.594Z,1022.95
2023-01-29T05:42:32.584Z,1022.92
2023-01-29T05:43:32.509Z,1022.89
2023-01-29T05:44:32.637Z,1022.81
2023-01-29T05:45:32.824Z,1022.78
2023-01-29T05:46:32.584Z,1022.77
2023-01-29T05:47:32.458Z,1022.85
2023-01-29T05:48:32.546Z,1022.77
2023-01-29T05:49:32.530Z,1022.73
2023-01-29T05:50:32.436Z,1022.74
2023-01-29T05:51:32.468Z,1022.73
2023-01-29T05:52:32.457Z,1022.69
2023-01-29T05:53:32.419Z,1022.76
2023-01-29T05:54:32.375Z,1022.76
2023-01-29T05:55:32.489Z,1022.73
2023-01-29T05:56:32.379Z,1022.71
2023-01-29T05:57:32.523Z,1022.70
2023-01-29T05:58:32.393Z,1022.69
2023-01-29T05:59:32.310Z,1022.67
2023-01-29T06:00:32.313Z,1022.63
2023-01-29T06:01:32.360Z,1022.68
2023-01-29T06:02:32.335Z,1022.65
2023-01-29T06:03:32.238Z,1022.76
2023-01-29T06:04:32.233Z,1022.80
2023-01-29T06:05:32.386Z,1022.85
2023-01-29T06:06:32.251Z,1022.84
2023-01-29T06:07:32.247Z,1022.91
2023-01-29T06:08:32.176Z,1022.92
2023-01-29T06:09:32.155Z,1022.89
2023-01-29T06:10:32.981Z,1022.89
2023-01-29T06:11:32.080Z,1022.88
2023-01-29T06:12:32.207Z,1022.93
2023-01-29T06:13:32.530Z,1023.01
2023-01-29T06:14:32.096Z,1022.96
2023-01-29T06:15:32.123Z,1022.96
2023-01-29T06:16:32.178Z,1022.96
2023-01-29T06:17:32.115Z,1022.90
2023-01-29T06:18:32.040Z,1022.92
2023-01-29T06:19:32.045Z,1022.86
2023-01-29T06:20:32.051Z,1022.84
2023-01-29T06:21:31.960Z,1022.83
2023-01-29T06:22:32.178Z,1022.80
2023-01-29T06:23:31.977Z,1022.77
2023-01-29T06:24:31.971Z,1022.72
2023-01-29T06:25:31.997Z,1022.68
2023-01-29T06:26:31.904Z,1022.69
2023-01-29T06:27:31.894Z,1022.71
2023-01-29T06:28:31.921Z,1022.63
2023-01-29T06:29:32.023Z,1022.57
2023-01-29T06:30:32.071Z,1022.50
2023-01-29T06:31:39.850Z,1022.47
2023-01-29T06:32:32.995Z,1022.48
2023-01-29T06:33:31.837Z,1022.51
2023-01-29T06:34:31.870Z,1022.56
2023-01-29T06:35:31.933Z,1022.60
2023-01-29T06:36:31.983Z,1022.64
2023-01-29T06:37:31.790Z,1022.57
2023-01-29T06:38:31.874Z,1022.61
2023-01-29T06:39:31.772Z,1022.60
2023-01-29T06:40:31.995Z,1022.68
2023-01-29T06:41:31.905Z,1022.75
2023-01-29T06:42:31.803Z,1022.71
2023-01-29T06:43:31.898Z,1022.71
2023-01-29T06:44:31.831Z,1022.67
2023-01-29T06:45:32.067Z,1022.63
2023-01-29T06:46:31.934Z,1022.58
2023-01-29T06:47:31.748Z,1022.55
2023-01-29T06:48:31.734Z,1022.50
2023-01-29T06:49:31.757Z,1022.41
2023-01-29T06:50:31.736Z,1022.38
2023-01-29T06:51:31.749Z,1022.41
2023-01-29T06:52:32.697Z,1022.38
2023-01-29T06:53:31.765Z,1022.39
2023-01-29T06:54:31.792Z,1022.42
2023-01-29T06:55:31.786Z,1022.42
2023-01-29T06:56:31.698Z,1022.50
2023-01-29T06:57:31.696Z,1022.45
2023-01-29T06:58:31.615Z,1022.38
2023-01-29T06:59:31.715Z,1022.36
2023-01-29T07:00:31.678Z,1022.43
2023-01-29T07:01:36.033Z,1022.39
2023-01-29T07:02:31.685Z,1022.37
2023-01-29T07:03:31.622Z,1022.34
2023-01-29T07:04:31.550Z,1022.29
2023-01-29T07:05:31.553Z,1022.28
2023-01-29T07:06:31.754Z,1022.26
2023-01-29T07:07:31.590Z,1022.25
2023-01-29T07:08:31.555Z,1022.31
2023-01-29T07:09:31.665Z,1022.31
2023-01-29T07:10:31.574Z,1022.36
2023-01-29T07:11:31.698Z,1022.37
2023-01-29T07:12:31.618Z,1022.39
2023-01-29T07:13:31.414Z,1022.38
2023-01-29T07:14:31.506Z,1022.38
2023-01-29T07:15:31.517Z,1022.37
2023-01-29T07:16:31.524Z,1022.35
2023-01-29T07:17:31.449Z,1022.30
2023-01-29T07:18:31.534Z,1022.27
2023-01-29T07:19:31.430Z,1022.30
2023-01-29T07:20:31.457Z,1022.31
2023-01-29T07:21:31.360Z,1022.33
2023-01-29T07:22:31.477Z,1022.30
2023-01-29T07:23:31.265Z,1022.33
2023-01-29T07:24:31.277Z,1022.34
2023-01-29T07:25:31.184Z,1022.39
2023-01-29T07:26:31.900Z,1022.39
2023-01-29T07:27:31.200Z,1022.42
2023-01-29T07:28:31.112Z,1022.46
2023-01-29T07:29:31.113Z,1022.50
2023-01-29T07:30:31.132Z,1022.48
2023-01-29T07:31:31.343Z,1022.45
2023-01-29T07:32:31.332Z,1022.45
2023-01-29T07:33:31.254Z,1022.39
2023-01-29T07:34:31.156Z,1022.33
2023-01-29T07:35:31.143Z,1022.38
2023-01-29T07:36:31.080Z,1022.38
2023-01-29T07:37:31.056Z,1022.36
2023-01-29T07:38:31.098Z,1022.34
2023-01-29T07:39:31.069Z,1022.35
2023-01-29T07:40:30.895Z,1022.38
2023-01-29T07:41:31.011Z,1022.34
2023-01-29T07:42:30.997Z,1022.34
2023-01-29T07:43:31.004Z,1022.32
2023-01-29T07:44:30.913Z,1022.32
2023-01-29T07:45:31.046Z,1022.29
2023-01-29T07:46:30.953Z,1022.24
2023-01-29T07:47:31.132Z,1022.16
2023-01-29T07:48:31.953Z,1022.13
2023-01-29T07:49:30.857Z,1022.03
2023-01-29T07:50:30.848Z,1021.99
2023-01-29T07:51:31.053Z,1021.99
2023-01-29T07:52:30.841Z,1022.01
2023-01-29T07:53:30.892Z,1022.05
2023-01-29T07:54:30.781Z,1022.06
2023-01-29T07:55:30.895Z,1022.12
2023-01-29T07:56:30.785Z,1022.18
2023-01-29T07:57:30.796Z,1022.15
2023-01-29T07:58:31.513Z,1022.16
2023-01-29T07:59:30.718Z,1022.18
2023-01-29T08:00:30.813Z,1022.15
2023-01-29T08:01:30.855Z,1022.16
2023-01-29T08:02:30.766Z,1022.18
2023-01-29T08:03:30.732Z,1022.19
2023-01-29T08:04:30.666Z,1022.22
2023-01-29T08:05:30.758Z,1022.20
2023-01-29T08:06:30.672Z,1022.18
2023-01-29T08:07:30.680Z,1022.17
2023-01-29T08:08:30.597Z,1022.20
2023-01-29T08:09:31.476Z,1022.21
2023-01-29T08:10:30.579Z,1022.15
2023-01-29T08:11:30.572Z,1022.10
2023-01-29T08:12:30.587Z,1022.08
2023-01-29T08:13:30.552Z,1022.05
2023-01-29T08:14:30.596Z,1022.05
2023-01-29T08:15:30.940Z,1022.11
2023-01-29T08:16:30.551Z,1022.02
2023-01-29T08:17:31.547Z,1022.03
2023-01-29T08:18:30.639Z,1022.03
2023-01-29T08:19:30.568Z,1022.05
2023-01-29T08:20:30.449Z,1022.02
2023-01-29T08:21:30.443Z,1022.01
2023-01-29T08:22:30.445Z,1022.00
2023-01-29T08:23:30.450Z,1021.98
2023-01-29T08:24:41.592Z,1021.98
2023-01-29T08:25:31.369Z,1021.95
2023-01-29T08:26:30.297Z,1021.96
2023-01-29T08:27:30.381Z,1022.05
2023-01-29T08:28:30.294Z,1022.06
2023-01-29T08:29:30.308Z,1022.08
2023-01-29T08:30:30.348Z,1022.10
2023-01-29T08:31:30.336Z,1022.15
2023-01-29T08:32:30.308Z,1022.17
2023-01-29T08:33:39.031Z,1022.15
2023-01-29T08:34:31.252Z,1022.17
2023-01-29T08:35:30.238Z,1022.13
2023-01-29T08:36:30.232Z,1022.08
2023-01-29T08:37:30.238Z,1022.08
2023-01-29T08:38:30.221Z,1022.05
2023-01-29T08:39:30.113Z,1022.11
2023-01-29T08:40:30.087Z,1022.07
2023-01-29T08:41:30.111Z,1022.09
2023-01-29T08:42:30.189Z,1022.16
2023-01-29T08:43:30.926Z,1022.19
2023-01-29T08:44:30.095Z,1022.12
2023-01-29T08:45:30.106Z,1022.14
2023-01-29T08:46:30.026Z,1022.12
2023-01-29T08:47:30.032Z,1022.13
2023-01-29T08:48:30.335Z,1022.13
2023-01-29T08:49:29.948Z,1022.07
2023-01-29T08:50:29.936Z,1022.08
2023-01-29T08:51:29.960Z,1022.08
2023-01-29T08:52:29.938Z,1022.06
2023-01-29T08:53:29.962Z,1022.05
2023-01-29T08:54:30.062Z,1022.04
2023-01-29T08:55:29.883Z,1022.02
2023-01-29T08:56:29.972Z,1022.00
2023-01-29T08:57:30.010Z,1021.97
2023-01-29T08:58:29.897Z,1021.98
2023-01-29T08:59:29.916Z,1021.96
2023-01-29T09:00:29.892Z,1022.00
2023-01-29T09:01:29.936Z,1021.98
2023-01-29T09:02:29.869Z,1022.00
2023-01-29T09:03:29.751Z,1022.02
2023-01-29T09:04:30.130Z,1022.00
2023-01-29T09:05:29.851Z,1021.98
2023-01-29T09:06:29.745Z,1022.01
2023-01-29T09:07:29.861Z,1022.03
2023-01-29T09:08:29.753Z,1022.05
2023-01-29T09:09:29.794Z,1022.05
2023-01-29T09:10:29.690Z,1022.04
2023-01-29T09:11:29.792Z,1022.03
2023-01-29T09:12:29.901Z,1022.02
2023-01-29T09:13:29.695Z,1022.03
2023-01-29T09:14:29.697Z,1022.07
2023-01-29T09:15:29.702Z,1022.06
2023-01-29T09:16:29.728Z,1022.07
2023-01-29T09:17:30.032Z,1022.04
2023-01-29T09:18:29.523Z,1022.05
2023-01-29T09:19:29.535Z,1022.04
2023-01-29T09:20:29.467Z,1022.04
2023-01-29T09:21:29.538Z,1022.04
2023-01-29T09:22:30.176Z,1022.07
2023-01-29T09:23:29.470Z,1022.02
2023-01-29T09:24:29.454Z,1022.05
2023-01-29T09:25:29.565Z,1022.01
2023-01-29T09:26:29.747Z,1022.00
2023-01-29T09:27:29.491Z,1021.97
2023-01-29T09:28:29.406Z,1021.96
2023-01-29T09:29:29.411Z,1021.96
2023-01-29T09:30:29.405Z,1021.96
2023-01-29T09:31:29.761Z,1021.98
2023-01-29T09:32:53.148Z,1021.95
2023-01-29T09:33:30.333Z,1021.96
2023-01-29T09:34:29.354Z,1021.91
2023-01-29T09:35:29.244Z,1021.92
2023-01-29T09:36:29.563Z,1021.85
2023-01-29T09:37:29.273Z,1021.84
2023-01-29T09:38:29.280Z,1021.80
2023-01-29T09:39:29.251Z,1021.78
2023-01-29T09:40:29.366Z,1021.79
2023-01-29T09:41:29.273Z,1021.71
2023-01-29T09:42:29.412Z,1021.77
2023-01-29T09:43:29.189Z,1021.69
2023-01-29T09:44:29.182Z,1021.69
2023-01-29T09:45:29.240Z,1021.67
2023-01-29T09:46:29.224Z,1021.65
2023-01-29T09:47:29.205Z,1021.66
2023-01-29T09:48:29.151Z,1021.72
2023-01-29T09:49:29.299Z,1021.71
2023-01-29T09:50:29.130Z,1021.66
2023-01-29T09:51:29.137Z,1021.64
2023-01-29T09:52:29.076Z,1021.61
2023-01-29T09:53:29.076Z,1021.66
2023-01-29T09:54:29.504Z,1021.56
2023-01-29T09:55:29.088Z,1021.59
2023-01-29T09:56:29.190Z,1021.55
2023-01-29T09:57:29.024Z,1021.55
2023-01-29T09:58:29.001Z,1021.55
2023-01-29T09:59:29.094Z,1021.46
2023-01-29T10:00:28.933Z,1021.45
2023-01-29T10:01:29.062Z,1021.42
2023-01-29T10:02:29.005Z,1021.39
2023-01-29T10:03:28.910Z,1021.32
2023-01-29T10:04:28.959Z,1021.33
2023-01-29T10:05:28.930Z,1021.34
2023-01-29T10:06:29.570Z,1021.28
2023-01-29T10:07:28.945Z,1021.31
2023-01-29T10:08:28.853Z,1021.26
2023-01-29T10:09:28.858Z,1021.25
2023-01-29T10:10:28.884Z,1021.25
2023-01-29T10:11:28.985Z,1021.22
2023-01-29T10:12:28.914Z,1021.19
2023-01-29T10:13:28.887Z,1021.17
2023-01-29T10:14:28.786Z,1021.14
2023-01-29T10:15:28.739Z,1021.20
2023-01-29T10:16:28.896Z,1021.17
2023-01-29T10:17:28.814Z,1021.12
2023-01-29T10:18:28.734Z,1021.14
2023-01-29T10:19:28.737Z,1021.17
2023-01-29T10:20:28.732Z,1021.13
2023-01-29T10:21:28.635Z,1021.11
2023-01-29T10:22:28.856Z,1021.06
2023-01-29T10:23:28.689Z,1021.09
2023-01-29T10:24:28.663Z,1021.04
2023-01-29T10:25:28.691Z,1021.03
2023-01-29T10:26:29.447Z,1021.01
2023-01-29T10:27:28.684Z,1021.03
2023-01-29T10:28:28.621Z,1021.03
2023-01-29T10:29:28.594Z,1020.99
2023-01-29T10:30:28.623Z,1021.01
2023-01-29T10:31:28.679Z,1021.00
2023-01-29T10:32:28.529Z,1020.99
2023-01-29T10:33:29.533Z,1020.96
2023-01-29T10:34:28.541Z,1020.88
2023-01-29T10:35:28.539Z,1020.92
2023-01-29T10:36:28.536Z,1020.85
2023-01-29T10:37:28.517Z,1020.85
2023-01-29T10:38:29.500Z,1020.76
2023-01-29T10:39:28.483Z,1020.78
2023-01-29T10:40:28.475Z,1020.78
2023-01-29T10:41:28.404Z,1020.72
2023-01-29T10:42:29.308Z,1020.71
2023-01-29T10:43:28.376Z,1020.69
2023-01-29T10:44:28.427Z,1020.59
2023-01-29T10:45:29.217Z,1020.67
2023-01-29T10:46:28.436Z,1020.64
2023-01-29T10:47:30.227Z,1020.55
2023-01-29T10:48:28.492Z,1020.62
2023-01-29T10:49:28.502Z,1020.58
2023-01-29T10:50:28.364Z,1020.62
2023-01-29T10:51:28.335Z,1020.59
2023-01-29T10:52:28.365Z,1020.58
2023-01-29T10:53:28.253Z,1020.57
2023-01-29T10:54:28.262Z,1020.58
2023-01-29T10:55:28.274Z,1020.59
2023-01-29T10:56:28.281Z,1020.55
2023-01-29T10:57:28.194Z,1020.51
2023-01-29T10:58:28.202Z,1020.57
2023-01-29T10:59:28.229Z,1020.51
2023-01-29T11:00:28.200Z,1020.50
2023-01-29T11:01:28.355Z,1020.50
2023-01-29T11:02:28.225Z,1020.39
2023-01-29T11:03:29.087Z,1020.55
2023-01-29T11:04:28.237Z,1020.52
2023-01-29T11:05:28.133Z,1020.52
2023-01-29T11:06:28.175Z,1020.51
2023-01-29T11:07:28.143Z,1020.52
2023-01-29T11:08:28.040Z,1020.49
2023-01-29T11:09:28.064Z,1020.48
2023-01-29T11:10:28.078Z,1020.48
2023-01-29T11:11:28.163Z,1020.48
2023-01-29T11:12:28.087Z,1020.45
2023-01-29T11:13:28.015Z,1020.46
2023-01-29T11:14:27.996Z,1020.41
2023-01-29T11:15:28.003Z,1020.49
2023-01-29T11:16:27.909Z,1020.50
2023-01-29T11:17:27.943Z,1020.44
2023-01-29T11:18:27.925Z,1020.46
2023-01-29T11:19:27.912Z,1020.44
2023-01-29T11:20:28.157Z,1020.37
2023-01-29T11:21:27.834Z,1020.39
2023-01-29T11:22:27.848Z,1020.39
2023-01-29T11:23:27.847Z,1020.40
2023-01-29T11:24:27.970Z,1020.45
2023-01-29T11:25:27.993Z,1020.41
2023-01-29T11:26:27.903Z,1020.46
2023-01-29T11:27:27.885Z,1020.48
2023-01-29T11:28:27.904Z,1020.46
2023-01-29T11:29:28.185Z,1020.43
2023-01-29T11:30:28.761Z,1020.42
2023-01-29T11:31:28.596Z,1020.48
2023-01-29T11:32:27.716Z,1020.39
2023-01-29T11:33:27.743Z,1020.38
2023-01-29T11:34:27.743Z,1020.39
2023-01-29T11:35:27.836Z,1020.42
2023-01-29T11:36:28.491Z,1020.36
2023-01-29T11:37:27.736Z,1020.38
2023-01-29T11:38:27.710Z,1020.31
2023-01-29T11:39:27.664Z,1020.35
2023-01-29T11:40:27.655Z,1020.23
2023-01-29T11:41:27.589Z,1020.27
2023-01-29T11:42:27.561Z,1020.20
2023-01-29T11:43:27.595Z,1020.16
2023-01-29T11:44:27.627Z,1020.18
2023-01-29T11:45:27.623Z,1020.14
2023-01-29T11:46:27.668Z,1020.18
2023-01-29T11:47:27.500Z,1020.14
2023-01-29T11:48:27.622Z,1020.09
2023-01-29T11:49:27.529Z,1020.06
2023-01-29T11:50:27.631Z,1020.04
2023-01-29T11:51:27.437Z,1020.06
2023-01-29T11:52:27.450Z,1019.93
2023-01-29T11:53:27.459Z,1020.00
2023-01-29T11:54:27.560Z,1020.00
2023-01-29T11:55:28.345Z,1019.98
2023-01-29T11:56:27.369Z,1020.01
2023-01-29T11:57:27.373Z,1019.95
2023-01-29T11:58:27.403Z,1019.89
2023-01-29T11:59:27.389Z,1019.87
2023-01-29T12:00:27.394Z,1019.90
2023-01-29T12:01:27.408Z,1019.83
2023-01-29T12:02:27.324Z,1019.85
2023-01-29T12:03:27.493Z,1019.77
2023-01-29T12:04:27.322Z,1019.79
2023-01-29T12:05:27.329Z,1019.75